Time;durP1;ratioP1;P1;durP2;ratioP2;P2;SDS_P1;SDS_P2;PMS_P1;PMS_P2;Temp;Humidity;BMP_temperature;BMP_pressure;BME280_temperature;BME280_humidity;BME280_pressure;Samples;Min_cycle;Max_cycle;Signal;HPM_P1;HPM_P2
2022/10/20 00:01:38;;;;;;;;;;;7.20;99.90;;;;;;6117963;23;19929;-65
2022/10/20 00:04:04;;;;;;;;;;;7.20;99.90;;;;;;6118993;23;19928;-65
2022/10/20 00:06:31;;;;;;;;;;;7.20;99.90;;;;;;6120025;23;19932;-64
2022/10/20 00:08:58;;;;;;;;;;;7.70;99.90;;;;;;6119512;23;20307;-65
2022/10/20 00:11:24;;;;;;;;;;;7.10;99.90;;;;;;6119086;23;19970;-64
2022/10/20 00:13:50;;;;;;;;;;;7.10;99.90;;;;;;6120198;23;19920;-64
2022/10/20 00:16:16;;;;;;;;;;;7.10;99.90;;;;;;6119722;23;19925;-64
2022/10/20 00:18:42;;;;;;;;;;;7.10;99.90;;;;;;6119449;23;19925;-64
2022/10/20 00:21:09;;;;;;;;;;;7.10;99.90;;;;;;6117864;23;20347;-64
2022/10/20 00:23:34;;;;;;;;;;;7.00;99.90;;;;;;6119606;23;19998;-64
2022/10/20 00:26:04;;;;;;;;;;;7.00;99.90;;;;;;6119228;23;20336;-66
2022/10/20 00:28:30;;;;;;;;;;;7.00;99.90;;;;;;6119212;23;20332;-64
2022/10/20 00:30:55;;;;;;;;;;;7.00;99.90;;;;;;6119566;23;19925;-63
2022/10/20 00:33:21;;;;;;;;;;;7.00;99.90;;;;;;6119086;23;20292;-65
2022/10/20 00:35:47;;;;;;;;;;;7.00;99.90;;;;;;6119993;23;19997;-65
2022/10/20 00:38:12;;;;;;;;;;;6.90;99.90;;;;;;6119391;23;19975;-65
2022/10/20 00:40:38;;;;;;;;;;;6.90;99.90;;;;;;6119202;23;20591;-65
2022/10/20 00:43:03;;;;;;;;;;;6.90;99.90;;;;;;6119619;23;19921;-67
2022/10/20 00:45:29;;;;;;;;;;;6.90;99.90;;;;;;6119474;23;19925;-66
2022/10/20 00:47:55;;;;;;;;;;;6.90;99.90;;;;;;6119115;23;19949;-66
2022/10/20 00:50:26;;;;;;;;;;;6.80;99.90;;;;;;6119052;23;19921;-64
2022/10/20 00:52:53;;;;;;;;;;;6.90;99.90;;;;;;6119277;23;19988;-66
2022/10/20 00:55:23;;;;;;;;;;;7.50;99.90;;;;;;6119529;23;20027;-66
2022/10/20 00:57:50;;;;;;;;;;;6.90;99.90;;;;;;6118012;23;19924;-66
2022/10/20 01:00:16;;;;;;;;;;;6.80;99.90;;;;;;6119595;23;20355;-66
2022/10/20 01:02:42;;;;;;;;;;;6.80;99.90;;;;;;6117428;23;19921;-66
2022/10/20 01:05:07;;;;;;;;;;;6.80;99.90;;;;;;6119475;23;19932;-66
2022/10/20 01:07:33;;;;;;;;;;;6.80;99.90;;;;;;6119654;23;19921;-65
2022/10/20 01:09:59;;;;;;;;;;;6.80;99.90;;;;;;6119721;23;20000;-65
2022/10/20 01:12:25;;;;;;;;;;;7.10;99.90;;;;;;6119221;23;19925;-65
2022/10/20 01:15:02;;;;;;;;;;;6.80;99.90;;;;;;6119249;23;20327;-66
2022/10/20 01:17:39;;;;;;;;;;;6.80;99.90;;;;;;6119615;23;19983;-66
2022/10/20 01:20:05;;;;;;;;;;;6.70;99.90;;;;;;6117603;23;19925;-65
2022/10/20 01:22:30;;;;;;;;;;;6.70;99.90;;;;;;6119196;23;19992;-66
2022/10/20 01:25:15;;;;;;;;;;;6.70;99.90;;;;;;6119123;23;19936;-64
2022/10/20 01:27:44;;;;;;;;;;;6.70;99.90;;;;;;6119531;23;20032;-64
2022/10/20 01:30:10;;;;;;;;;;;6.60;99.90;;;;;;6119249;23;20283;-63
2022/10/20 01:32:54;;;;;;;;;;;7.10;99.90;;;;;;6119255;23;20341;-65
2022/10/20 01:35:23;;;;;;;;;;;6.60;99.90;;;;;;6119367;23;19948;-62
2022/10/20 01:37:49;;;;;;;;;;;6.60;99.90;;;;;;6118908;23;19921;-62
2022/10/20 01:40:21;;;;;;;;;;;6.60;99.90;;;;;;6118416;23;19921;-62
2022/10/20 01:42:48;;;;;;;;;;;6.60;99.90;;;;;;6119587;23;19929;-62
2022/10/20 01:45:16;;;;;;;;;;;6.50;99.90;;;;;;6119376;23;19922;-64
2022/10/20 01:47:42;;;;;;;;;;;6.50;99.90;;;;;;6119066;23;20003;-63
2022/10/20 01:50:09;;;;;;;;;;;6.60;99.90;;;;;;6118745;23;20014;-62
2022/10/20 01:52:34;;;;;;;;;;;6.50;99.90;;;;;;6118670;23;20327;-63
2022/10/20 01:55:00;;;;;;;;;;;6.40;99.90;;;;;;6118508;23;19921;-62
2022/10/20 01:57:34;;;;;;;;;;;6.50;99.90;;;;;;6118699;23;19925;-63
2022/10/20 02:00:03;;;;;;;;;;;6.40;99.90;;;;;;6119190;23;19974;-63
2022/10/20 02:02:41;;;;;;;;;;;6.40;99.90;;;;;;6118999;23;20323;-63
2022/10/20 02:05:17;;;;;;;;;;;6.40;99.90;;;;;;6119192;23;19925;-64
2022/10/20 02:07:42;;;;;;;;;;;6.40;99.90;;;;;;6118646;23;20007;-63
2022/10/20 02:10:11;;;;;;;;;;;6.40;99.90;;;;;;6119474;23;19960;-62
2022/10/20 02:12:39;;;;;;;;;;;6.40;99.90;;;;;;6118276;23;20367;-63
2022/10/20 02:15:07;;;;;;;;;;;6.30;99.90;;;;;;6118670;23;20008;-65
2022/10/20 02:17:34;;;;;;;;;;;6.40;99.90;;;;;;6119242;23;19928;-64
2022/10/20 02:19:59;;;;;;;;;;;6.30;99.90;;;;;;6118586;23;19931;-63
2022/10/20 02:22:25;;;;;;;;;;;6.30;99.90;;;;;;6118674;23;19999;-64
2022/10/20 02:24:50;;;;;;;;;;;6.30;99.90;;;;;;6118804;23;19955;-63
2022/10/20 02:27:21;;;;;;;;;;;6.30;99.90;;;;;;6117880;23;19929;-64
2022/10/20 02:29:53;;;;;;;;;;;6.30;99.90;;;;;;6118711;23;19995;-64
2022/10/20 02:32:20;;;;;;;;;;;6.90;99.90;;;;;;6118110;23;19925;-64
2022/10/20 02:34:46;;;;;;;;;;;6.20;99.90;;;;;;6118892;23;19987;-64
2022/10/20 02:37:12;;;;;;;;;;;6.20;99.90;;;;;;6119319;23;19956;-63
2022/10/20 02:39:37;;;;;;;;;;;6.20;99.90;;;;;;6117186;23;20264;-62
2022/10/20 02:42:03;;;;;;;;;;;6.20;99.90;;;;;;6118765;23;19925;-63
2022/10/20 02:44:28;;;;;;;;;;;6.10;99.90;;;;;;6119316;23;20236;-62
2022/10/20 02:46:54;;;;;;;;;;;6.10;99.90;;;;;;6119084;23;20336;-63
2022/10/20 02:49:20;;;;;;;;;;;6.10;99.90;;;;;;6116210;23;19924;-62
2022/10/20 02:51:46;;;;;;;;;;;6.10;99.90;;;;;;6118925;23;20328;-62
2022/10/20 02:54:11;;;;;;;;;;;6.80;99.90;;;;;;6118882;23;19920;-64
2022/10/20 02:56:37;;;;;;;;;;;6.10;99.90;;;;;;6119064;23;19929;-63
2022/10/20 02:59:02;;;;;;;;;;;6.10;99.90;;;;;;6119007;23;20355;-63
2022/10/20 03:01:28;;;;;;;;;;;6.10;99.90;;;;;;6118637;23;20351;-63
2022/10/20 03:03:58;;;;;;;;;;;6.10;99.90;;;;;;6119043;23;20256;-62
2022/10/20 03:06:24;;;;;;;;;;;6.10;99.90;;;;;;6118288;23;19921;-62
2022/10/20 03:08:49;;;;;;;;;;;6.10;99.90;;;;;;6118433;23;19924;-63
2022/10/20 03:11:15;;;;;;;;;;;6.00;99.90;;;;;;6118221;23;19928;-63
2022/10/20 03:13:41;;;;;;;;;;;6.10;99.90;;;;;;6118651;23;19965;-62
2022/10/20 03:16:07;;;;;;;;;;;6.00;99.90;;;;;;6117964;23;19947;-62
2022/10/20 03:18:33;;;;;;;;;;;6.20;99.90;;;;;;6118278;23;19925;-63
2022/10/20 03:20:58;;;;;;;;;;;6.00;99.90;;;;;;6117978;23;19986;-62
2022/10/20 03:23:24;;;;;;;;;;;6.00;99.90;;;;;;6118261;23;19956;-62
2022/10/20 03:25:49;;;;;;;;;;;4.30;99.90;;;;;;6118333;23;19925;-63
2022/10/20 03:28:15;;;;;;;;;;;6.00;99.90;;;;;;6118654;23;19928;-62
2022/10/20 03:30:40;;;;;;;;;;;6.00;99.90;;;;;;6118305;23;20397;-64
2022/10/20 03:33:06;;;;;;;;;;;6.00;99.90;;;;;;6117048;23;19932;-62
2022/10/20 03:35:32;;;;;;;;;;;6.00;99.90;;;;;;6117821;23;19997;-65
2022/10/20 03:37:57;;;;;;;;;;;6.00;99.90;;;;;;6118867;23;20251;-63
2022/10/20 03:40:23;;;;;;;;;;;6.00;99.90;;;;;;6119295;23;19925;-65
2022/10/20 03:42:48;;;;;;;;;;;6.00;99.90;;;;;;6118669;23;19944;-63
2022/10/20 03:45:14;;;;;;;;;;;6.00;99.90;;;;;;6117975;23;19917;-65
2022/10/20 03:47:39;;;;;;;;;;;6.00;99.90;;;;;;6118766;23;19979;-64
2022/10/20 03:50:05;;;;;;;;;;;5.90;99.90;;;;;;6119467;23;19928;-64
2022/10/20 03:52:31;;;;;;;;;;;5.90;99.90;;;;;;6118636;23;19928;-65
2022/10/20 03:54:56;;;;;;;;;;;5.90;99.90;;;;;;6119838;23;19963;-65
2022/10/20 03:57:22;;;;;;;;;;;5.90;99.90;;;;;;6119781;23;20371;-66
2022/10/20 03:59:47;;;;;;;;;;;6.00;99.90;;;;;;6119649;23;20737;-64
2022/10/20 04:02:28;;;;;;;;;;;5.90;99.90;;;;;;6119348;23;20512;-63
2022/10/20 04:04:54;;;;;;;;;;;5.80;99.90;;;;;;6119603;23;20302;-65
2022/10/20 04:07:19;;;;;;;;;;;5.80;99.90;;;;;;6119615;23;19964;-65
2022/10/20 04:09:45;;;;;;;;;;;6.20;99.90;;;;;;6119441;23;19999;-64
2022/10/20 04:12:10;;;;;;;;;;;5.80;99.90;;;;;;6117921;23;19932;-65
2022/10/20 04:14:36;;;;;;;;;;;6.00;99.90;;;;;;6118858;23;20332;-64
2022/10/20 04:17:01;;;;;;;;;;;5.80;99.90;;;;;;6119258;23;19921;-65
2022/10/20 04:19:27;;;;;;;;;;;6.50;99.90;;;;;;6119351;23;19970;-66
2022/10/20 04:21:52;;;;;;;;;;;5.70;99.90;;;;;;6119652;23;19925;-64
2022/10/20 04:24:18;;;;;;;;;;;5.80;99.90;;;;;;6119693;23;19932;-64
2022/10/20 04:26:44;;;;;;;;;;;5.70;99.90;;;;;;6118600;23;19976;-64
2022/10/20 04:29:09;;;;;;;;;;;5.70;99.90;;;;;;6119212;23;20028;-62
2022/10/20 04:31:35;;;;;;;;;;;5.70;99.90;;;;;;6119575;23;19921;-63
2022/10/20 04:34:00;;;;;;;;;;;5.70;99.90;;;;;;6119338;23;19957;-62
2022/10/20 04:36:26;;;;;;;;;;;5.70;99.90;;;;;;6119231;23;19925;-62
2022/10/20 04:38:51;;;;;;;;;;;5.70;99.90;;;;;;6119434;23;19924;-62
2022/10/20 04:41:17;;;;;;;;;;;6.30;99.90;;;;;;6119893;23;19925;-62
2022/10/20 04:43:42;;;;;;;;;;;6.00;99.90;;;;;;6118999;23;19924;-62
2022/10/20 04:46:09;;;;;;;;;;;5.70;99.90;;;;;;6119354;23;19925;-62
2022/10/20 04:48:35;;;;;;;;;;;5.70;99.90;;;;;;6118879;23;19929;-62
2022/10/20 04:51:00;;;;;;;;;;;5.70;99.90;;;;;;6118256;23;19928;-62
2022/10/20 04:53:26;;;;;;;;;;;5.60;99.90;;;;;;6119677;23;20260;-62
2022/10/20 04:55:57;;;;;;;;;;;5.70;99.90;;;;;;6118025;23;19921;-62
2022/10/20 04:58:24;;;;;;;;;;;5.60;99.90;;;;;;6119215;23;19921;-62
2022/10/20 05:00:49;;;;;;;;;;;5.60;99.90;;;;;;6118022;23;20401;-62
2022/10/20 05:03:15;;;;;;;;;;;5.60;99.90;;;;;;6115643;23;19924;-62
2022/10/20 05:05:41;;;;;;;;;;;5.60;99.90;;;;;;6118224;23;20003;-62
2022/10/20 05:08:06;;;;;;;;;;;5.60;99.90;;;;;;6119329;23;19943;-62
2022/10/20 05:10:32;;;;;;;;;;;5.60;99.90;;;;;;6118528;23;20445;-62
2022/10/20 05:12:57;;;;;;;;;;;5.60;99.90;;;;;;6118057;23;19928;-62
2022/10/20 05:15:23;;;;;;;;;;;5.60;99.90;;;;;;6118576;23;19928;-62
2022/10/20 05:17:48;;;;;;;;;;;5.60;99.90;;;;;;6118279;23;19921;-62
2022/10/20 05:20:14;;;;;;;;;;;5.50;99.90;;;;;;6117889;23;19925;-62
2022/10/20 05:22:39;;;;;;;;;;;5.50;99.90;;;;;;6118123;23;19988;-62
2022/10/20 05:25:05;;;;;;;;;;;5.60;99.90;;;;;;6119063;23;19921;-62
2022/10/20 05:27:31;;;;;;;;;;;5.60;99.90;;;;;;6119234;23;19932;-62
2022/10/20 05:29:56;;;;;;;;;;;5.60;99.90;;;;;;6119649;23;20321;-62
2022/10/20 05:32:22;;;;;;;;;;;5.50;99.90;;;;;;6119566;23;19988;-63
2022/10/20 05:34:47;;;;;;;;;;;5.50;99.90;;;;;;6117370;23;19929;-62
2022/10/20 05:37:13;;;;;;;;;;;5.50;99.90;;;;;;6119074;23;19921;-62
2022/10/20 05:39:38;;;;;;;;;;;5.80;99.90;;;;;;6119488;23;19925;-61
2022/10/20 05:42:04;;;;;;;;;;;5.50;99.90;;;;;;6117880;23;19995;-62
2022/10/20 05:44:29;;;;;;;;;;;5.50;99.90;;;;;;6118673;23;19960;-62
2022/10/20 05:46:55;;;;;;;;;;;5.50;99.90;;;;;;6119215;23;19921;-62
2022/10/20 05:49:22;;;;;;;;;;;5.50;99.90;;;;;;6118722;23;20291;-63
2022/10/20 05:51:47;;;;;;;;;;;5.50;99.90;;;;;;6118812;23;19925;-63
2022/10/20 05:54:14;;;;;;;;;;;5.50;99.90;;;;;;6117513;23;19921;-62
2022/10/20 05:56:39;;;;;;;;;;;5.50;99.90;;;;;;6119213;23;19925;-62
2022/10/20 05:59:05;;;;;;;;;;;5.50;99.90;;;;;;6118915;23;20228;-66
2022/10/20 06:01:39;;;;;;;;;;;5.50;99.90;;;;;;6118373;23;19943;-67
2022/10/20 06:04:05;;;;;;;;;;;5.50;99.90;;;;;;6118898;23;19952;-65
2022/10/20 06:06:31;;;;;;;;;;;5.50;99.90;;;;;;6119220;23;19979;-63
2022/10/20 06:08:58;;;;;;;;;;;5.50;99.90;;;;;;6119307;23;19929;-63
2022/10/20 06:11:23;;;;;;;;;;;5.50;99.90;;;;;;6118326;23;20401;-65
2022/10/20 06:13:49;;;;;;;;;;;5.50;99.90;;;;;;6119228;23;19921;-67
2022/10/20 06:16:17;;;;;;;;;;;5.50;99.90;;;;;;6114573;23;21444;-62
2022/10/20 06:18:43;;;;;;;;;;;5.50;99.90;;;;;;6116283;23;19925;-62
2022/10/20 06:21:14;;;;;;;;;;;5.60;99.90;;;;;;6118896;23;19927;-65
2022/10/20 06:23:40;;;;;;;;;;;5.50;99.90;;;;;;6118355;23;20617;-66
2022/10/20 06:26:13;;;;;;;;;;;5.50;99.90;;;;;;6119075;23;19983;-64
2022/10/20 06:28:39;;;;;;;;;;;5.50;99.90;;;;;;6118406;23;20545;-65
2022/10/20 06:31:18;;;;;;;;;;;5.60;99.90;;;;;;6118540;23;19921;-66
2022/10/20 06:33:44;;;;;;;;;;;5.60;99.90;;;;;;6118163;23;19992;-64
2022/10/20 06:36:10;;;;;;;;;;;5.60;99.90;;;;;;6119040;23;19944;-63
2022/10/20 06:38:37;;;;;;;;;;;5.60;99.90;;;;;;6118739;23;19971;-65
2022/10/20 06:41:03;;;;;;;;;;;5.70;99.90;;;;;;6113698;23;19925;-66
2022/10/20 06:43:29;;;;;;;;;;;5.70;99.90;;;;;;6117197;23;19928;-64
2022/10/20 06:45:58;;;;;;;;;;;5.70;99.90;;;;;;6117983;23;19925;-66
2022/10/20 06:48:24;;;;;;;;;;;5.80;99.90;;;;;;6117652;23;19925;-66
2022/10/20 06:50:54;;;;;;;;;;;5.80;99.90;;;;;;6116909;23;19970;-64
2022/10/20 06:53:20;;;;;;;;;;;5.80;99.90;;;;;;6116871;23;19928;-64
2022/10/20 06:55:53;;;;;;;;;;;5.90;99.90;;;;;;6117138;23;19984;-64
2022/10/20 06:58:19;;;;;;;;;;;5.90;99.90;;;;;;6115446;23;19931;-65
2022/10/20 07:00:44;;;;;;;;;;;6.00;99.90;;;;;;6116381;23;19999;-66
2022/10/20 07:03:10;;;;;;;;;;;6.10;99.90;;;;;;6116447;23;19960;-63
2022/10/20 07:05:35;;;;;;;;;;;6.10;99.90;;;;;;6115503;23;19928;-65
2022/10/20 07:08:01;;;;;;;;;;;6.20;99.90;;;;;;6115436;23;19924;-63
2022/10/20 07:10:26;;;;;;;;;;;6.20;99.90;;;;;;6118073;23;19935;-67
2022/10/20 07:12:52;;;;;;;;;;;6.30;99.90;;;;;;6116188;23;20010;-66
2022/10/20 07:15:17;;;;;;;;;;;6.30;99.90;;;;;;6118812;23;19982;-63
2022/10/20 07:17:43;;;;;;;;;;;6.40;99.90;;;;;;6118572;23;19925;-63
2022/10/20 07:20:09;;;;;;;;;;;6.50;99.90;;;;;;6117018;23;19980;-65
2022/10/20 07:22:35;;;;;;;;;;;6.60;99.90;;;;;;6117841;23;19925;-66
2022/10/20 07:25:05;;;;;;;;;;;6.60;99.90;;;;;;6118746;23;19978;-68
2022/10/20 07:27:30;;;;;;;;;;;8.70;99.90;;;;;;6093452;23;20399;-67
2022/10/20 07:29:56;;;;;;;;;;;6.80;99.90;;;;;;6118694;23;19956;-66
2022/10/20 07:32:21;;;;;;;;;;;6.90;99.90;;;;;;6118514;23;19924;-66
2022/10/20 07:34:47;;;;;;;;;;;6.90;99.90;;;;;;6118879;23;19933;-63
2022/10/20 07:37:12;;;;;;;;;;;7.00;99.90;;;;;;6118711;23;19921;-64
2022/10/20 07:39:38;;;;;;;;;;;7.10;99.90;;;;;;6119218;23;19992;-63
2022/10/20 07:42:03;;;;;;;;;;;7.10;99.90;;;;;;6119508;23;19931;-65
2022/10/20 07:44:29;;;;;;;;;;;7.20;99.90;;;;;;6114030;23;20216;-64
2022/10/20 07:46:54;;;;;;;;;;;7.20;99.90;;;;;;6118831;23;20286;-63
2022/10/20 07:49:20;;;;;;;;;;;7.40;99.90;;;;;;6118292;23;19971;-63
2022/10/20 07:51:46;;;;;;;;;;;7.30;99.90;;;;;;6118852;23;20010;-63
2022/10/20 07:54:11;;;;;;;;;;;7.20;99.90;;;;;;6117994;23;19999;-63
2022/10/20 07:56:39;;;;;;;;;;;7.30;99.90;;;;;;6118453;23;20008;-63
2022/10/20 07:59:05;;;;;;;;;;;7.40;99.90;;;;;;6117175;23;19925;-63
2022/10/20 08:01:31;;;;;;;;;;;7.40;99.90;;;;;;6116646;23;19952;-63
2022/10/20 08:03:56;;;;;;;;;;;7.90;99.90;;;;;;6118570;23;19925;-63
2022/10/20 08:06:22;;;;;;;;;;;7.50;99.90;;;;;;6118464;23;20359;-63
2022/10/20 08:08:47;;;;;;;;;;;7.60;99.90;;;;;;6118678;23;19931;-63
2022/10/20 08:11:13;;;;;;;;;;;7.60;99.90;;;;;;6119398;23;19925;-63
2022/10/20 08:13:39;;;;;;;;;;;8.00;99.90;;;;;;6118037;23;19957;-63
2022/10/20 08:16:09;;;;;;;;;;;8.40;99.90;;;;;;6112502;23;19921;-63
2022/10/20 08:18:34;;;;;;;;;;;7.90;99.90;;;;;;6116238;23;19921;-63
2022/10/20 08:21:06;;;;;;;;;;;8.00;99.90;;;;;;6115307;23;19932;-63
2022/10/20 08:23:32;;;;;;;;;;;8.10;99.90;;;;;;6115232;23;19929;-62
2022/10/20 08:25:57;;;;;;;;;;;8.20;99.90;;;;;;6116150;23;19925;-63
2022/10/20 08:28:23;;;;;;;;;;;8.60;99.90;;;;;;6116149;23;19932;-63
2022/10/20 08:30:48;;;;;;;;;;;8.50;99.90;;;;;;6116771;23;19931;-62
2022/10/20 08:33:14;;;;;;;;;;;8.50;99.90;;;;;;6117514;23;19932;-62
2022/10/20 08:35:39;;;;;;;;;;;8.60;99.90;;;;;;6117801;23;19921;-63
2022/10/20 08:38:05;;;;;;;;;;;8.80;99.90;;;;;;6117135;23;19925;-62
2022/10/20 08:40:33;;;;;;;;;;;8.80;99.90;;;;;;6117345;23;19917;-64
2022/10/20 08:42:59;;;;;;;;;;;9.00;99.90;;;;;;6117809;23;19932;-62
2022/10/20 08:45:25;;;;;;;;;;;9.00;99.90;;;;;;6117055;23;19925;-64
2022/10/20 08:47:52;;;;;;;;;;;9.40;99.90;;;;;;6116963;23;19928;-62
2022/10/20 08:50:18;;;;;;;;;;;9.10;99.90;;;;;;6117702;23;20012;-62
2022/10/20 08:52:45;;;;;;;;;;;9.30;99.90;;;;;;6117600;23;20588;-63
2022/10/20 08:55:37;;;;;;;;;;;9.40;99.90;;;;;;6117933;23;19928;-63
2022/10/20 08:58:12;;;;;;;;;;;9.50;99.90;;;;;;6118855;23;19996;-63
2022/10/20 09:00:38;;;;;;;;;;;9.50;99.90;;;;;;6117391;23;19929;-64
2022/10/20 09:03:16;;;;;;;;;;;9.70;99.90;;;;;;6117604;23;19928;-64
2022/10/20 09:05:44;;;;;;;;;;;9.80;99.90;;;;;;6117646;23;19924;-63
2022/10/20 09:08:09;;;;;;;;;;;9.90;99.90;;;;;;6117381;23;20286;-63
2022/10/20 09:10:36;;;;;;;;;;;10.00;99.90;;;;;;6113822;23;19925;-62
2022/10/20 09:13:05;;;;;;;;;;;10.20;99.90;;;;;;6115674;23;20008;-63
2022/10/20 09:15:31;;;;;;;;;;;10.10;99.90;;;;;;6116971;23;19968;-63
2022/10/20 09:18:00;;;;;;;;;;;10.30;99.90;;;;;;6113049;23;19921;-63
2022/10/20 09:20:29;;;;;;;;;;;10.20;99.90;;;;;;6116254;23;20362;-64
2022/10/20 09:22:54;;;;;;;;;;;10.60;99.90;;;;;;6116834;23;19948;-64
2022/10/20 09:25:22;;;;;;;;;;;10.70;99.90;;;;;;6116895;23;19986;-63
2022/10/20 09:27:49;;;;;;;;;;;10.90;99.90;;;;;;6117893;23;19929;-64
2022/10/20 09:30:17;;;;;;;;;;;11.00;99.90;;;;;;6118017;23;19921;-64
2022/10/20 09:32:43;;;;;;;;;;;11.10;99.90;;;;;;6115576;23;19979;-64
2022/10/20 09:35:23;;;;;;;;;;;11.30;99.90;;;;;;6118155;23;19956;-66
2022/10/20 09:37:51;;;;;;;;;;;11.60;99.90;;;;;;6117145;23;20009;-65
2022/10/20 09:40:17;;;;;;;;;;;11.80;99.90;;;;;;6114128;23;20244;-64
2022/10/20 09:42:47;;;;;;;;;;;11.80;99.90;;;;;;6115296;23;19925;-65
2022/10/20 09:45:20;;;;;;;;;;;11.90;99.90;;;;;;6117113;23;20519;-63
2022/10/20 09:47:49;;;;;;;;;;;11.90;99.90;;;;;;6116554;23;19921;-64
2022/10/20 09:50:34;;;;;;;;;;;12.00;99.90;;;;;;6116357;23;20351;-66
2022/10/20 09:53:00;;;;;;;;;;;12.00;99.90;;;;;;6117642;23;20352;-64
2022/10/20 09:55:30;;;;;;;;;;;12.10;99.90;;;;;;6117806;23;19948;-63
2022/10/20 09:57:57;;;;;;;;;;;12.20;99.90;;;;;;6118183;23;19952;-62
2022/10/20 10:00:28;;;;;;;;;;;12.10;99.90;;;;;;6117736;23;19920;-63
2022/10/20 10:03:08;;;;;;;;;;;12.20;99.90;;;;;;6115880;23;19931;-63
2022/10/20 10:05:34;;;;;;;;;;;12.30;99.90;;;;;;6116381;23;19921;-63
2022/10/20 10:07:59;;;;;;;;;;;12.20;99.90;;;;;;6118066;23;19931;-63
2022/10/20 10:10:27;;;;;;;;;;;12.30;99.90;;;;;;6115256;23;20634;-63
2022/10/20 10:12:53;;;;;;;;;;;12.30;99.90;;;;;;6114849;23;20237;-62
2022/10/20 10:15:24;;;;;;;;;;;12.50;99.90;;;;;;6118220;23;19925;-63
2022/10/20 10:17:50;;;;;;;;;;;12.80;99.90;;;;;;6117143;23;20104;-63
2022/10/20 10:20:15;;;;;;;;;;;12.80;99.90;;;;;;6117251;23;20343;-64
2022/10/20 10:22:41;;;;;;;;;;;12.70;99.90;;;;;;6117661;23;20233;-63
2022/10/20 10:25:15;;;;;;;;;;;12.60;99.90;;;;;;6117381;23;19921;-63
2022/10/20 10:27:55;;;;;;;;;;;12.60;99.90;;;;;;6116867;23;19932;-64
2022/10/20 10:30:27;;;;;;;;;;;12.80;99.90;;;;;;6115934;23;19921;-63
2022/10/20 10:32:52;;;;;;;;;;;12.80;99.90;;;;;;6116765;23;19921;-67
2022/10/20 10:35:38;;;;;;;;;;;12.90;99.90;;;;;;6117051;23;20008;-67
2022/10/20 10:38:04;;;;;;;;;;;13.00;99.90;;;;;;6117295;23;20385;-63
2022/10/20 10:40:29;;;;;;;;;;;13.00;99.90;;;;;;6117317;23;19968;-66
2022/10/20 10:43:00;;;;;;;;;;;13.00;99.90;;;;;;6116604;23;19971;-63
2022/10/20 10:45:39;;;;;;;;;;;13.10;99.90;;;;;;6117225;23;19928;-64
2022/10/20 10:48:19;;;;;;;;;;;13.10;99.90;;;;;;6115286;23;19924;-63
2022/10/20 10:50:51;;;;;;;;;;;13.20;99.90;;;;;;6116787;23;19925;-63
2022/10/20 10:53:26;;;;;;;;;;;13.30;99.90;;;;;;6114492;23;19928;-63
2022/10/20 10:56:18;;;;;;;;;;;13.20;99.90;;;;;;6116093;23;19971;-63
2022/10/20 10:59:01;;;;;;;;;;;13.30;99.90;;;;;;6116967;23;19925;-65
2022/10/20 11:01:33;;;;;;;;;;;13.50;99.90;;;;;;6117583;23;19971;-63
2022/10/20 11:04:04;;;;;;;;;;;13.70;99.90;;;;;;6116537;23;19960;-63
2022/10/20 11:06:39;;;;;;;;;;;13.90;99.90;;;;;;6115993;23;19933;-63
2022/10/20 11:09:12;;;;;;;;;;;14.00;99.90;;;;;;6116996;23;19964;-63
2022/10/20 11:11:56;;;;;;;;;;;14.40;99.90;;;;;;6117320;23;19928;-63
2022/10/20 11:14:37;;;;;;;;;;;14.30;99.90;;;;;;6115948;23;19925;-64
2022/10/20 11:17:41;;;;;;;;;;;14.40;99.90;;;;;;6116432;23;20351;-63
2022/10/20 11:20:16;;;;;;;;;;;14.80;99.90;;;;;;6144947;23;19924;-65
2022/10/20 11:22:53;;;;;;;;;;;14.80;99.90;;;;;;6143920;23;19959;-64
2022/10/20 11:25:45;;;;;;;;;;;14.70;99.90;;;;;;6127189;23;19921;-63
2022/10/20 11:28:26;;;;;;;;;;;14.90;99.90;;;;;;6128434;23;19964;-63
2022/10/20 11:30:51;;;;;;;;;;;15.00;99.90;;;;;;6117280;23;19921;-64
2022/10/20 11:33:19;;;;;;;;;;;15.20;99.90;;;;;;6116250;23;20032;-64
2022/10/20 11:35:50;;;;;;;;;;;15.40;99.90;;;;;;6113853;23;20572;-64
2022/10/20 11:38:34;;;;;;;;;;;15.30;99.90;;;;;;6114903;23;20000;-65
2022/10/20 11:41:11;;;;;;;;;;;15.30;99.90;;;;;;6116178;23;19949;-65
2022/10/20 11:43:41;;;;;;;;;;;15.10;99.90;;;;;;6116436;23;19927;-64
2022/10/20 11:46:16;;;;;;;;;;;15.00;99.90;;;;;;6116393;23;19928;-64
2022/10/20 11:48:47;;;;;;;;;;;15.20;99.90;;;;;;6116874;23;19925;-63
2022/10/20 11:51:28;;;;;;;;;;;15.20;99.90;;;;;;6117049;23;19956;-66
2022/10/20 11:54:09;;;;;;;;;;;15.20;99.90;;;;;;6118030;23;19993;-67
2022/10/20 11:56:52;;;;;;;;;;;15.20;99.90;;;;;;6117491;23;20243;-65
2022/10/20 11:59:37;;;;;;;;;;;15.30;99.90;;;;;;6117136;23;19990;-66
2022/10/20 12:02:21;;;;;;;;;;;15.30;99.90;;;;;;6118030;23;19971;-65
2022/10/20 12:04:57;;;;;;;;;;;15.10;99.90;;;;;;6117550;23;19991;-65
2022/10/20 12:07:23;;;;;;;;;;;14.90;99.90;;;;;;6118293;23;19925;-65
2022/10/20 12:09:48;;;;;;;;;;;15.00;99.90;;;;;;6118227;23;20437;-64
2022/10/20 12:12:19;;;;;;;;;;;15.00;99.90;;;;;;6116289;23;19931;-65
2022/10/20 12:14:56;;;;;;;;;;;14.90;99.90;;;;;;6118465;23;20237;-64
2022/10/20 12:17:40;;;;;;;;;;;15.00;99.90;;;;;;6116225;23;19925;-66
2022/10/20 12:20:21;;;;;;;;;;;14.70;99.90;;;;;;6117549;23;19925;-64
2022/10/20 12:22:48;;;;;;;;;;;14.60;99.90;;;;;;6118275;23;19978;-66
2022/10/20 12:25:17;;;;;;;;;;;14.60;99.90;;;;;;6117087;23;19952;-63
2022/10/20 12:27:43;;;;;;;;;;;14.50;99.90;;;;;;6114592;23;19948;-65
2022/10/20 12:30:27;;;;;;;;;;;14.50;99.90;;;;;;6116682;23;19921;-63
2022/10/20 12:32:56;;;;;;;;;;;14.50;99.90;;;;;;6118678;23;20351;-63
2022/10/20 12:35:21;;;;;;;;;;;14.50;99.90;;;;;;6118277;23;19929;-63
2022/10/20 12:37:54;;;;;;;;;;;14.40;99.90;;;;;;6118841;23;19974;-63
2022/10/20 12:40:25;;;;;;;;;;;14.40;99.90;;;;;;6118018;23;19925;-63
2022/10/20 12:42:52;;;;;;;;;;;14.30;99.90;;;;;;6117624;23;19929;-63
2022/10/20 12:45:18;;;;;;;;;;;14.20;99.90;;;;;;6118507;23;19936;-67
2022/10/20 12:47:48;;;;;;;;;;;14.10;99.90;;;;;;6118176;23;19929;-65
2022/10/20 12:50:32;;;;;;;;;;;14.00;99.90;;;;;;6118492;23;19932;-68
2022/10/20 12:53:18;;;;;;;;;;;13.90;99.90;;;;;;6118109;23;20017;-63
2022/10/20 12:55:47;;;;;;;;;;;13.80;99.90;;;;;;6122618;23;20004;-65
2022/10/20 12:58:18;;;;;;;;;;;13.80;99.90;;;;;;6118671;23;20305;-64
2022/10/20 13:00:46;;;;;;;;;;;13.70;99.90;;;;;;6115505;23;19925;-65
2022/10/20 13:03:30;;;;;;;;;;;13.70;99.90;;;;;;6117655;23;19932;-65
2022/10/20 13:05:57;;;;;;;;;;;13.70;99.90;;;;;;6116139;23;20008;-65
2022/10/20 13:08:24;;;;;;;;;;;13.50;99.90;;;;;;6116681;23;19925;-66
2022/10/20 13:10:52;;;;;;;;;;;13.50;99.90;;;;;;6116573;23;19925;-67
2022/10/20 13:13:18;;;;;;;;;;;13.40;99.90;;;;;;6116314;23;20305;-67
2022/10/20 13:15:47;;;;;;;;;;;13.40;99.90;;;;;;6116350;23;20397;-66
2022/10/20 13:18:12;;;;;;;;;;;13.30;99.90;;;;;;6116973;23;19939;-65
2022/10/20 13:20:57;;;;;;;;;;;13.20;99.90;;;;;;6115539;23;20406;-69
2022/10/20 13:23:26;;;;;;;;;;;13.10;99.90;;;;;;6116467;23;20572;-65
2022/10/20 13:25:53;;;;;;;;;;;13.10;99.90;;;;;;6115119;23;20308;-64
2022/10/20 13:28:21;;;;;;;;;;;13.10;99.90;;;;;;6113852;23;19972;-67
2022/10/20 13:31:05;;;;;;;;;;;13.00;99.90;;;;;;6111774;23;19929;-63
2022/10/20 13:33:37;;;;;;;;;;;13.00;99.90;;;;;;6116432;23;19983;-66
2022/10/20 13:36:12;;;;;;;;;;;12.90;99.90;;;;;;6113164;23;20007;-67
2022/10/20 13:38:57;;;;;;;;;;;12.80;99.90;;;;;;6115128;23;19959;-64
2022/10/20 13:41:27;;;;;;;;;;;12.80;99.90;;;;;;6116904;23;20003;-71
2022/10/20 13:44:13;;;;;;;;;;;12.90;99.90;;;;;;6117701;23;19996;-65
2022/10/20 13:46:57;;;;;;;;;;;12.70;99.90;;;;;;6122108;23;19929;-65
2022/10/20 13:49:28;;;;;;;;;;;12.70;99.90;;;;;;6117403;23;19925;-66
2022/10/20 13:51:57;;;;;;;;;;;12.60;99.90;;;;;;6117916;23;19932;-69
2022/10/20 13:54:28;;;;;;;;;;;12.60;99.90;;;;;;6118048;23;19921;-68
2022/10/20 13:56:54;;;;;;;;;;;12.50;99.90;;;;;;6117435;23;19921;-68
2022/10/20 13:59:25;;;;;;;;;;;12.50;99.90;;;;;;6118458;23;19928;-68
2022/10/20 14:02:02;;;;;;;;;;;12.50;99.90;;;;;;6117614;23;19948;-68
2022/10/20 14:04:29;;;;;;;;;;;12.40;99.90;;;;;;6116743;23;19929;-69
2022/10/20 14:07:00;;;;;;;;;;;12.30;99.90;;;;;;6117686;23;19974;-66
2022/10/20 14:09:26;;;;;;;;;;;12.30;99.90;;;;;;6118539;23;19928;-68
2022/10/20 14:11:58;;;;;;;;;;;12.30;99.90;;;;;;6115252;23;19925;-66
2022/10/20 14:14:25;;;;;;;;;;;12.40;99.90;;;;;;6113185;23;19931;-67
2022/10/20 14:16:51;;;;;;;;;;;12.30;99.90;;;;;;6115640;23;20410;-69
2022/10/20 14:19:20;;;;;;;;;;;12.20;99.90;;;;;;6115752;23;19975;-65
2022/10/20 14:21:50;;;;;;;;;;;12.30;99.90;;;;;;6117946;23;19925;-67
2022/10/20 14:24:24;;;;;;;;;;;12.10;99.90;;;;;;6117654;23;20284;-69
2022/10/20 14:26:50;;;;;;;;;;;12.10;99.90;;;;;;6117337;23;20008;-70
2022/10/20 14:29:17;;;;;;;;;;;12.00;99.90;;;;;;6117762;23;19964;-65
2022/10/20 14:31:44;;;;;;;;;;;12.00;99.90;;;;;;6116443;23;20298;-67
2022/10/20 14:34:21;;;;;;;;;;;12.00;99.90;;;;;;6116802;23;19921;-70
2022/10/20 14:36:48;;;;;;;;;;;11.90;99.90;;;;;;6117384;23;19929;-70